Decoded Metar for KCCY (CHARLES CITY in IA, USA) (IATA:CCY) | Meteo·Mobile Aviation Weather
aviador You're here:

KCCY Decoded Metar

CHARLES CITY in IA, USA
Report Time2018-10-17 02:55:00
UTC Time2018-10-17 03:14:31
Flight Rules vfr VFR
Wind290° at 07 kt
W.Decomp.*RWY 30: 6.8 kt HW 1.6 kt LCW
RWY 22: 2.7 kt HW 6.4 kt RCW
RWY 36: 2.0 kt HW 6.7 kt LCW
W.Rank290° ranks 7
Current wind is below 290° avg. (9.3)
Visibility9999 m
Phenomena:N/A
Clouds:N/A
Expected CloudBase > 2,400 ft AGL from Temp-Dew spread
CeilingNone
Temp06°C (ISA -7)
Dew Point00°C (66% RH)
AAT1.5°C
QNH1021 hPa
Density Alt128 ft
Elevation1,125 ft
Report Wrong Elevation
Raw Report
KCCY 170255Z AUTO 29007KT 10SM CLR 06/00 A3014 RMK AO2=

Extra information for KCCY:More info

Metar Taf Metar & Taf Last 4 Metars F.Rules Stats Wind Profile Meteogram Temp Stats Airport Information Weather charts Add Link Nearby VenuesMetar ALERT Operation Metar Decoded Social comments

AIRNAV info for KCCY